Time;durP1;ratioP1;P1;durP2;ratioP2;P2;SDS_P1;SDS_P2;PMS_P1;PMS_P2;Temp;Humidity;BMP_temperature;BMP_pressure;BME280_temperature;BME280_humidity;BME280_pressure;Samples;Min_cycle;Max_cycle;Signal;HPM_P1;HPM_P2
2023/09/23 00:01:28;;;;;;;13.20;6.78;;;21.80;56.30;;;;;;5030830;28;20033;-68
2023/09/23 00:03:54;;;;;;;13.15;7.00;;;21.80;56.40;;;;;;5033504;28;20599;-68
2023/09/23 00:06:22;;;;;;;12.20;7.30;;;21.70;56.40;;;;;;5018978;28;20037;-69
2023/09/23 00:08:49;;;;;;;12.20;6.88;;;21.70;56.40;;;;;;5018690;28;20038;-68
2023/09/23 00:11:15;;;;;;;12.35;6.40;;;21.70;56.50;;;;;;5026999;28;20029;-69
2023/09/23 00:13:41;;;;;;;13.95;6.45;;;21.70;56.60;;;;;;5033534;28;20029;-69
2023/09/23 00:16:14;;;;;;;10.50;6.78;;;21.70;56.60;;;;;;5030552;28;20384;-69
2023/09/23 00:18:40;;;;;;;10.73;6.43;;;21.60;56.60;;;;;;5013065;28;20369;-69
2023/09/23 00:21:07;;;;;;;11.73;6.03;;;21.60;56.70;;;;;;5012927;28;20048;-69
2023/09/23 00:23:34;;;;;;;9.80;5.25;;;21.60;56.70;;;;;;5013102;28;20480;-69
2023/09/23 00:26:01;;;;;;;10.20;5.30;;;21.50;56.70;;;;;;5013789;28;20034;-68
2023/09/23 00:28:28;;;;;;;9.45;5.20;;;21.50;56.80;;;;;;5014002;28;20034;-68
2023/09/23 00:31:01;;;;;;;7.85;4.70;;;21.50;56.90;;;;;;5025280;28;20104;-68
2023/09/23 00:33:26;;;;;;;9.40;4.65;;;21.50;57.00;;;;;;5032762;28;20029;-68
2023/09/23 00:35:52;;;;;;;6.95;4.70;;;21.40;57.00;;;;;;5023172;28;20484;-68
2023/09/23 00:38:18;;;;;;;6.00;4.07;;;21.40;57.10;;;;;;5016969;28;20035;-69
2023/09/23 00:40:44;;;;;;;6.55;4.70;;;21.40;57.10;;;;;;5031310;28;20049;-69
2023/09/23 00:43:13;;;;;;;6.78;5.03;;;21.40;57.20;;;;;;5026884;28;20436;-68
2023/09/23 00:45:47;;;;;;;7.18;4.60;;;21.40;57.20;;;;;;5012642;28;20026;-68
2023/09/23 00:48:18;;;;;;;7.95;4.43;;;21.30;57.20;;;;;;5032553;28;20037;-69
2023/09/23 00:50:44;;;;;;;7.30;4.32;;;21.30;57.30;;;;;;5036778;28;20025;-68
2023/09/23 00:53:10;;;;;;;8.65;4.43;;;21.20;57.40;;;;;;5020576;28;20042;-68
2023/09/23 00:55:42;;;;;;;6.75;4.40;;;21.20;57.50;;;;;;5025077;28;20060;-68
2023/09/23 00:58:14;;;;;;;8.27;4.82;;;21.20;57.60;;;;;;5037777;28;20034;-68
2023/09/23 01:00:43;;;;;;;7.85;4.47;;;21.20;57.50;;;;;;5027617;28;20037;-69
2023/09/23 01:03:10;;;;;;;7.95;4.63;;;21.10;57.40;;;;;;5017611;28;20046;-68
2023/09/23 01:05:39;;;;;;;7.45;4.40;;;21.10;57.50;;;;;;5017245;28;20046;-69
2023/09/23 01:08:22;;;;;;;7.03;4.63;;;21.00;57.60;;;;;;5017504;28;20365;-69
2023/09/23 01:10:48;;;;;;;8.77;4.70;;;21.00;57.70;;;;;;5025427;28;20036;-68
2023/09/23 01:13:14;;;;;;;7.47;4.30;;;21.00;57.70;;;;;;5022749;28;20105;-69
2023/09/23 01:15:41;;;;;;;5.80;4.10;;;20.90;57.80;;;;;;5017308;28;20131;-68
2023/09/23 01:18:07;;;;;;;7.78;4.63;;;20.90;57.90;;;;;;5017221;28;20542;-68
2023/09/23 01:20:33;;;;;;;7.53;4.55;;;20.90;58.00;;;;;;5017137;28;20057;-68
2023/09/23 01:22:59;;;;;;;6.97;4.15;;;20.80;58.00;;;;;;5018183;28;20173;-68
2023/09/23 01:25:25;;;;;;;6.72;4.40;;;20.90;58.20;;;;;;5030970;28;20128;-68
2023/09/23 01:27:51;;;;;;;5.32;4.13;;;20.80;58.10;;;;;;5023553;28;20060;-68
2023/09/23 01:30:20;;;;;;;7.80;4.32;;;20.80;58.20;;;;;;5016991;28;20060;-68
2023/09/23 01:32:49;;;;;;;9.15;5.03;;;20.80;58.30;;;;;;5017072;28;20073;-68
2023/09/23 01:35:17;;;;;;;8.10;4.75;;;20.80;58.30;;;;;;5016829;28;20096;-69
2023/09/23 01:37:48;;;;;;;6.22;4.50;;;20.80;58.30;;;;;;5016973;28;20034;-68
2023/09/23 01:40:17;;;;;;;6.55;4.90;;;20.70;58.40;;;;;;5016878;28;20037;-68
2023/09/23 01:42:49;;;;;;;5.88;4.47;;;20.80;58.40;;;;;;5016822;28;20080;-66
2023/09/23 01:45:15;;;;;;;9.85;5.35;;;20.70;58.50;;;;;;5018008;28;20034;-68
2023/09/23 01:47:41;;;;;;;8.85;5.10;;;20.70;58.60;;;;;;5027775;28;20068;-68
2023/09/23 01:50:09;;;;;;;10.45;5.20;;;20.70;58.70;;;;;;5016685;28;20029;-68
2023/09/23 01:52:36;;;;;;;9.38;5.03;;;20.70;58.70;;;;;;5016767;28;20026;-68
2023/09/23 01:55:03;;;;;;;8.35;5.40;;;20.70;58.80;;;;;;5016233;28;20029;-68
2023/09/23 01:57:30;;;;;;;6.95;4.55;;;20.70;58.90;;;;;;5017337;28;20040;-68
2023/09/23 01:59:56;;;;;;;9.13;4.78;;;20.70;58.90;;;;;;5028403;28;20045;-68
2023/09/23 02:02:21;;;;;;;5.88;4.63;;;20.70;59.00;;;;;;5035851;28;20086;-68
2023/09/23 02:04:47;;;;;;;7.00;4.38;;;20.70;59.10;;;;;;5036292;28;20087;-68
2023/09/23 02:07:14;;;;;;;8.40;4.72;;;20.60;59.10;;;;;;5033983;28;20025;-69
2023/09/23 02:09:40;;;;;;;7.50;4.53;;;20.60;59.10;;;;;;5036228;28;20037;-69
2023/09/23 02:12:06;;;;;;;6.95;4.40;;;20.60;59.20;;;;;;5036364;28;20029;-68
2023/09/23 02:14:31;;;;;;;7.35;4.43;;;20.60;59.20;;;;;;5036202;28;20452;-68
2023/09/23 02:16:57;;;;;;;8.13;4.32;;;20.60;59.30;;;;;;5035307;28;20033;-68
2023/09/23 02:19:27;;;;;;;6.60;3.95;;;20.70;59.40;;;;;;5016036;28;20026;-68
2023/09/23 02:21:53;;;;;;;6.70;4.15;;;20.60;59.40;;;;;;5016200;28;20084;-68
2023/09/23 02:24:18;;;;;;;7.38;4.28;;;20.60;59.50;;;;;;5015899;28;20468;-68
2023/09/23 02:26:48;;;;;;;6.55;4.38;;;20.60;59.60;;;;;;5015826;28;20034;-68
2023/09/23 02:29:15;;;;;;;6.40;3.85;;;20.60;59.60;;;;;;5016043;28;20184;-68
2023/09/23 02:31:49;;;;;;;5.68;4.20;;;20.60;59.60;;;;;;5017090;28;20029;-68
2023/09/23 02:34:18;;;;;;;5.45;3.85;;;20.60;59.70;;;;;;5014981;28;20041;-69
2023/09/23 02:36:49;;;;;;;6.55;3.95;;;20.70;59.80;;;;;;5015737;28;20042;-68
2023/09/23 02:39:16;;;;;;;4.95;3.63;;;20.70;59.80;;;;;;5027910;28;20095;-68
2023/09/23 02:41:46;;;;;;;5.65;4.30;;;20.70;59.80;;;;;;5015970;28;20088;-68
2023/09/23 02:44:18;;;;;;;5.70;3.88;;;20.70;59.80;;;;;;5025640;28;20053;-68
2023/09/23 02:46:48;;;;;;;5.45;3.80;;;20.70;59.80;;;;;;5034615;28;20060;-68
2023/09/23 02:49:14;;;;;;;5.97;4.00;;;20.70;59.90;;;;;;5035457;28;20025;-69
2023/09/23 02:51:44;;;;;;;4.60;3.95;;;20.70;59.90;;;;;;5022395;28;20500;-68
2023/09/23 02:54:13;;;;;;;8.23;4.30;;;20.60;59.90;;;;;;5015738;28;20033;-68
2023/09/23 02:56:39;;;;;;;6.05;4.40;;;20.60;60.00;;;;;;5026462;28;20541;-68
2023/09/23 02:59:13;;;;;;;6.15;3.90;;;20.60;60.00;;;;;;5035237;28;20034;-68
2023/09/23 03:01:45;;;;;;;5.88;3.80;;;20.60;60.00;;;;;;5034966;28;20048;-69
2023/09/23 03:04:18;;;;;;;7.20;4.75;;;20.50;60.00;;;;;;5035522;28;20036;-68
2023/09/23 03:06:49;;;;;;;5.67;4.40;;;20.50;60.10;;;;;;5020695;28;20523;-68
2023/09/23 03:09:25;;;;;;;5.05;3.83;;;20.50;60.20;;;;;;5014053;28;20076;-69
2023/09/23 03:11:57;;;;;;;5.45;4.15;;;20.40;60.20;;;;;;5013161;28;20033;-68
2023/09/23 03:14:35;;;;;;;5.88;3.75;;;20.40;60.30;;;;;;5013764;28;20033;-69
2023/09/23 03:17:01;;;;;;;7.38;4.10;;;20.40;60.40;;;;;;5015178;28;20030;-69
2023/09/23 03:19:27;;;;;;;6.15;4.15;;;20.30;60.40;;;;;;5019294;28;20546;-68
2023/09/23 03:21:56;;;;;;;6.40;4.20;;;20.40;60.60;;;;;;5014108;28;20061;-68
2023/09/23 03:24:25;;;;;;;5.57;3.97;;;20.30;60.60;;;;;;5015122;28;20380;-68
2023/09/23 03:26:53;;;;;;;6.63;4.30;;;20.40;60.70;;;;;;5033929;28;20033;-68
2023/09/23 03:29:19;;;;;;;6.45;3.92;;;20.30;60.80;;;;;;5016410;28;20037;-68
2023/09/23 03:31:44;;;;;;;8.48;4.40;;;20.40;60.90;;;;;;5015007;28;20101;-68
2023/09/23 03:34:13;;;;;;;6.93;4.53;;;20.40;60.90;;;;;;5015202;28;20101;-68
2023/09/23 03:36:40;;;;;;;6.30;4.78;;;20.40;60.90;;;;;;5015620;28;20122;-68
2023/09/23 03:39:06;;;;;;;9.82;6.50;;;20.50;61.00;;;;;;5014362;28;20440;-68
2023/09/23 03:41:33;;;;;;;7.03;5.13;;;20.50;60.90;;;;;;5014728;28;20056;-68
2023/09/23 03:43:59;;;;;;;8.63;5.05;;;20.50;60.90;;;;;;5013509;28;20388;-68
2023/09/23 03:46:25;;;;;;;7.57;5.00;;;20.50;60.90;;;;;;5014985;28;20450;-68
2023/09/23 03:48:50;;;;;;;6.65;4.60;;;20.50;60.90;;;;;;5014471;28;20109;-68
2023/09/23 03:51:17;;;;;;;7.18;4.68;;;20.60;60.90;;;;;;5024173;28;20052;-68
2023/09/23 03:53:44;;;;;;;5.60;4.30;;;20.60;60.90;;;;;;5033377;28;20025;-68
2023/09/23 03:56:10;;;;;;;7.78;4.47;;;20.60;60.80;;;;;;5029862;28;20089;-68
2023/09/23 03:58:38;;;;;;;6.22;4.32;;;20.60;60.80;;;;;;5014471;28;20427;-68
2023/09/23 04:01:13;;;;;;;7.28;4.30;;;20.60;60.80;;;;;;5014632;28;20076;-68
2023/09/23 04:03:39;;;;;;;5.50;3.80;;;20.70;60.80;;;;;;5014326;28;20436;-69
2023/09/23 04:06:05;;;;;;;7.35;4.50;;;20.70;60.80;;;;;;5029802;28;20387;-68
2023/09/23 04:08:31;;;;;;;5.25;4.03;;;20.70;60.80;;;;;;5033590;28;20033;-68
2023/09/23 04:11:01;;;;;;;5.95;3.80;;;20.80;60.80;;;;;;5033467;28;20459;-68
2023/09/23 04:13:27;;;;;;;6.00;4.10;;;20.80;60.80;;;;;;5034156;28;20036;-69
2023/09/23 04:15:57;;;;;;;6.45;4.00;;;20.90;60.80;;;;;;5031596;28;20025;-68
2023/09/23 04:18:23;;;;;;;6.28;3.90;;;20.80;60.80;;;;;;5031819;28;20034;-68
2023/09/23 04:20:50;;;;;;;5.75;3.67;;;20.90;60.90;;;;;;5033040;28;20045;-68
2023/09/23 04:23:16;;;;;;;4.68;3.70;;;20.90;60.90;;;;;;5033241;28;20072;-68
2023/09/23 04:25:42;;;;;;;11.30;4.18;;;21.00;60.90;;;;;;5033927;28;20111;-68
2023/09/23 04:28:07;;;;;;;7.72;3.72;;;21.00;60.90;;;;;;5025532;28;20049;-68
2023/09/23 04:30:34;;;;;;;5.28;3.50;;;21.00;60.90;;;;;;5022013;28;20033;-69
2023/09/23 04:33:02;;;;;;;6.93;4.00;;;21.00;61.00;;;;;;5033817;28;20025;-68
2023/09/23 04:35:29;;;;;;;7.70;4.20;;;21.10;61.00;;;;;;5030437;28;20040;-68
2023/09/23 04:37:55;;;;;;;10.57;3.90;;;21.10;61.00;;;;;;5014557;28;20061;-68
2023/09/23 04:40:20;;;;;;;6.45;4.00;;;21.10;61.00;;;;;;5014121;28;20464;-68
2023/09/23 04:42:48;;;;;;;6.82;3.67;;;21.20;61.10;;;;;;5024557;28;20120;-69
2023/09/23 04:45:14;;;;;;;4.85;3.40;;;21.20;61.00;;;;;;5028504;28;20032;-68
2023/09/23 04:47:40;;;;;;;6.20;3.67;;;21.30;61.10;;;;;;5023544;28;20026;-68
2023/09/23 04:50:08;;;;;;;6.15;3.47;;;21.30;61.10;;;;;;5013797;28;20041;-68
2023/09/23 04:52:34;;;;;;;5.15;3.78;;;21.30;61.00;;;;;;5012627;28;20088;-68
2023/09/23 04:55:00;;;;;;;5.30;3.70;;;21.40;61.00;;;;;;5013769;28;20026;-68
2023/09/23 04:57:26;;;;;;;4.45;3.45;;;21.40;61.00;;;;;;5013893;28;20022;-69
2023/09/23 04:59:52;;;;;;;5.88;3.60;;;21.50;61.10;;;;;;5018040;28;20037;-68
2023/09/23 05:02:18;;;;;;;5.07;3.60;;;21.50;61.00;;;;;;5013600;28;20095;-68
2023/09/23 05:04:48;;;;;;;8.90;3.63;;;21.50;61.00;;;;;;5012475;28;20049;-69
2023/09/23 05:07:14;;;;;;;6.15;3.42;;;21.60;61.00;;;;;;5012931;28;20022;-68
2023/09/23 05:09:45;;;;;;;4.68;3.65;;;21.60;61.00;;;;;;5012348;28;20034;-68
2023/09/23 05:12:11;;;;;;;5.32;3.58;;;21.70;61.00;;;;;;5013746;28;20394;-69
2023/09/23 05:14:37;;;;;;;6.95;3.40;;;21.70;60.90;;;;;;5026923;28;20033;-68
2023/09/23 05:17:05;;;;;;;3.78;3.20;;;21.80;60.90;;;;;;5032834;28;20045;-68
2023/09/23 05:19:34;;;;;;;5.45;3.33;;;21.80;60.90;;;;;;5032670;28;20048;-69
2023/09/23 05:22:00;;;;;;;4.85;3.60;;;21.90;60.80;;;;;;5033084;28;20035;-69
2023/09/23 05:24:27;;;;;;;8.13;4.10;;;21.90;61.40;;;;;;5018675;28;20117;-68
2023/09/23 05:26:56;;;;;;;9.00;3.70;;;22.00;60.80;;;;;;5024204;28;20034;-69
2023/09/23 05:29:24;;;;;;;5.18;3.65;;;22.00;60.70;;;;;;5031110;28;20040;-68
2023/09/23 05:31:50;;;;;;;4.28;3.70;;;22.10;60.80;;;;;;5016959;28;20025;-68
2023/09/23 05:34:21;;;;;;;5.35;3.45;;;22.10;60.70;;;;;;5017297;28;20076;-69
2023/09/23 05:36:47;;;;;;;4.40;3.22;;;22.20;60.70;;;;;;5018108;28;20034;-68
2023/09/23 05:39:18;;;;;;;5.43;3.80;;;22.20;60.70;;;;;;5031146;28;20044;-68
2023/09/23 05:41:44;;;;;;;5.93;3.58;;;22.30;60.70;;;;;;5030476;28;20044;-69
2023/09/23 05:44:09;;;;;;;7.38;3.78;;;22.30;60.70;;;;;;5024933;28;20026;-69
2023/09/23 05:46:37;;;;;;;5.40;3.65;;;22.30;60.60;;;;;;5024314;28;20033;-68
2023/09/23 05:49:10;;;;;;;4.82;3.50;;;22.40;60.60;;;;;;5017829;28;20036;-68
2023/09/23 05:51:36;;;;;;;5.30;3.67;;;22.40;61.20;;;;;;5017041;28;20030;-68
2023/09/23 05:54:02;;;;;;;5.97;3.75;;;22.40;60.60;;;;;;5015308;28;20119;-70
2023/09/23 05:56:28;;;;;;;4.57;3.65;;;22.50;60.60;;;;;;5024564;28;20112;-70
2023/09/23 05:58:54;;;;;;;7.05;3.80;;;22.50;60.60;;;;;;5030894;28;20425;-76
2023/09/23 06:01:19;;;;;;;6.30;3.30;;;22.60;61.20;;;;;;5017559;28;20121;-70
2023/09/23 06:03:45;;;;;;;11.63;3.65;;;22.60;60.60;;;;;;5027606;28;20406;-74
2023/09/23 06:06:11;;;;;;;5.03;3.53;;;22.60;60.60;;;;;;5026918;28;20468;-71
2023/09/23 06:08:37;;;;;;;5.95;3.85;;;22.70;60.60;;;;;;5036150;28;20072;-71
2023/09/23 06:11:07;;;;;;;6.65;3.80;;;22.70;60.60;;;;;;5035931;28;20376;-71
2023/09/23 06:13:34;;;;;;;5.57;3.50;;;22.80;61.00;;;;;;5026737;28;20033;-73
2023/09/23 06:16:03;;;;;;;7.10;3.60;;;22.80;61.10;;;;;;5019960;28;20033;-72
2023/09/23 06:18:30;;;;;;;8.32;3.70;;;22.90;61.10;;;;;;5015801;28;20038;-71
2023/09/23 06:20:59;;;;;;;4.53;3.03;;;22.90;61.10;;;;;;5016674;28;20033;-72
2023/09/23 06:23:25;;;;;;;4.97;2.90;;;23.00;61.20;;;;;;5014677;28;20030;-71
2023/09/23 06:25:55;;;;;;;6.65;3.08;;;23.00;61.10;;;;;;5014400;28;20388;-72
2023/09/23 06:28:22;;;;;;;6.20;3.42;;;23.10;61.10;;;;;;5023957;28;20033;-74
2023/09/23 06:30:48;;;;;;;4.72;3.33;;;23.10;61.10;;;;;;5033795;28;20032;-72
2023/09/23 06:33:13;;;;;;;4.53;3.30;;;23.20;61.10;;;;;;5023360;28;20100;-72
2023/09/23 06:35:39;;;;;;;5.03;3.40;;;23.20;60.90;;;;;;5029226;28;20030;-71
2023/09/23 06:38:05;;;;;;;5.15;3.25;;;23.20;60.90;;;;;;5023978;28;20033;-71
2023/09/23 06:40:30;;;;;;;4.63;3.20;;;23.20;60.80;;;;;;5032525;28;20025;-69
2023/09/23 06:42:56;;;;;;;7.45;3.10;;;23.30;60.70;;;;;;5026216;28;20395;-70
2023/09/23 06:45:22;;;;;;;4.22;3.28;;;23.30;60.60;;;;;;5016286;28;20053;-70
2023/09/23 06:47:47;;;;;;;5.25;3.35;;;23.30;60.50;;;;;;5027339;28;20022;-68
2023/09/23 06:50:13;;;;;;;7.80;3.40;;;23.30;60.50;;;;;;5035299;28;20067;-71
2023/09/23 06:52:38;;;;;;;5.72;3.40;;;23.30;60.50;;;;;;5025775;28;20025;-69
2023/09/23 06:55:04;;;;;;;6.65;3.40;;;23.40;60.50;;;;;;5018199;28;20026;-69
2023/09/23 06:57:30;;;;;;;5.95;3.30;;;23.40;60.30;;;;;;5015521;28;20103;-68
2023/09/23 06:59:56;;;;;;;5.55;3.22;;;23.50;60.30;;;;;;5018963;28;20052;-69
2023/09/23 07:02:21;;;;;;;5.72;3.55;;;23.50;60.20;;;;;;5025910;28;20076;-69
2023/09/23 07:04:47;;;;;;;6.65;3.47;;;23.50;60.10;;;;;;5024770;28;20034;-69
2023/09/23 07:07:13;;;;;;;5.93;3.42;;;23.60;60.10;;;;;;5032560;28;20128;-69
2023/09/23 07:09:38;;;;;;;5.47;3.30;;;23.60;60.00;;;;;;5034920;28;20041;-69
2023/09/23 07:12:06;;;;;;;8.90;3.50;;;23.60;60.00;;;;;;5034704;28;20471;-70
2023/09/23 07:14:32;;;;;;;9.05;3.40;;;23.60;60.00;;;;;;5021303;28;20076;-67
2023/09/23 07:16:58;;;;;;;6.40;3.30;;;23.60;60.00;;;;;;5015380;28;20520;-67
2023/09/23 07:19:23;;;;;;;5.45;3.53;;;23.60;59.90;;;;;;5016975;28;20207;-67
2023/09/23 07:21:49;;;;;;;5.57;3.50;;;23.60;59.90;;;;;;5015173;28;20049;-67
2023/09/23 07:24:14;;;;;;;6.70;3.30;;;23.60;59.80;;;;;;5014850;28;20033;-68
2023/09/23 07:26:40;;;;;;;6.75;3.67;;;23.60;59.80;;;;;;5015599;28;20037;-67
2023/09/23 07:29:06;;;;;;;6.22;3.28;;;23.70;59.80;;;;;;5020202;28;20069;-67
2023/09/23 07:31:31;;;;;;;5.43;3.63;;;23.70;59.80;;;;;;5016724;28;20021;-67
2023/09/23 07:33:57;;;;;;;5.53;3.38;;;23.70;59.80;;;;;;5039786;28;20033;-67
2023/09/23 07:36:23;;;;;;;5.97;3.40;;;23.70;59.70;;;;;;5026010;28;20037;-67
2023/09/23 07:38:50;;;;;;;6.22;3.10;;;23.70;59.70;;;;;;5024392;28;20034;-68
2023/09/23 07:41:17;;;;;;;9.65;4.68;;;23.70;59.70;;;;;;5041300;28;20033;-68
2023/09/23 07:43:43;;;;;;;6.53;4.20;;;23.70;59.70;;;;;;5031135;28;20055;-68
2023/09/23 07:46:08;;;;;;;7.82;4.10;;;23.70;59.60;;;;;;5016188;28;20026;-68
2023/09/23 07:48:34;;;;;;;6.13;3.70;;;23.80;59.70;;;;;;5032069;28;20037;-69
2023/09/23 07:50:59;;;;;;;8.05;3.60;;;23.80;59.70;;;;;;5027418;28;20105;-72
2023/09/23 07:53:25;;;;;;;7.18;3.42;;;23.80;59.90;;;;;;5013818;28;20429;-72
2023/09/23 07:55:51;;;;;;;6.13;3.53;;;23.80;60.00;;;;;;5018411;28;20107;-80
2023/09/23 07:58:16;;;;;;;5.05;3.60;;;23.90;60.00;;;;;;5032390;28;20029;-75
2023/09/23 08:00:43;;;;;;;6.97;4.13;;;23.90;60.00;;;;;;5033771;28;20049;-71
2023/09/23 08:03:08;;;;;;;6.30;3.55;;;23.90;60.00;;;;;;5033612;28;20049;-72
2023/09/23 08:05:34;;;;;;;8.40;3.67;;;23.90;59.90;;;;;;5031938;28;20022;-72
2023/09/23 08:07:59;;;;;;;4.80;3.25;;;23.90;59.90;;;;;;5029125;28;20021;-76
2023/09/23 08:10:25;;;;;;;6.47;3.88;;;24.00;60.00;;;;;;5053537;28;20055;-73
2023/09/23 08:12:51;;;;;;;7.03;3.90;;;24.00;59.90;;;;;;5015919;28;20045;-74
2023/09/23 08:15:17;;;;;;;6.32;4.07;;;24.10;60.00;;;;;;5031192;28;20037;-72
2023/09/23 08:17:42;;;;;;;6.05;3.75;;;24.10;60.00;;;;;;5017719;28;20033;-76
2023/09/23 08:20:22;;;;;;;8.88;3.92;;;24.10;60.00;;;;;;5017399;28;20033;-75
2023/09/23 08:22:48;;;;;;;6.38;4.05;;;24.20;60.00;;;;;;5014575;28;20031;-72
2023/09/23 08:25:15;;;;;;;8.07;4.00;;;24.20;60.00;;;;;;5021916;28;20034;-69
2023/09/23 08:27:41;;;;;;;8.43;3.78;;;24.20;60.00;;;;;;5025618;28;20018;-71
2023/09/23 08:30:10;;;;;;;6.88;3.97;;;24.30;60.00;;;;;;5033606;28;20029;-74
2023/09/23 08:32:40;;;;;;;4.45;3.50;;;24.30;60.00;;;;;;5022730;28;20367;-75
2023/09/23 08:35:07;;;;;;;3.92;3.33;;;24.30;60.00;;;;;;5022505;28;20072;-74
2023/09/23 08:37:33;;;;;;;5.85;3.60;;;24.40;60.00;;;;;;5031682;28;20437;-74
2023/09/23 08:39:59;;;;;;;5.22;3.97;;;24.40;60.10;;;;;;5022528;28;20148;-74
2023/09/23 08:42:25;;;;;;;7.07;3.78;;;24.40;60.20;;;;;;5039306;28;20060;-75
2023/09/23 08:44:51;;;;;;;4.85;3.35;;;24.30;60.10;;;;;;5023638;28;20033;-74
2023/09/23 08:47:18;;;;;;;5.53;3.50;;;24.40;60.30;;;;;;5013857;28;20037;-73
2023/09/23 08:49:49;;;;;;;5.18;3.42;;;24.40;60.30;;;;;;5020758;28;21262;-72
2023/09/23 08:52:18;;;;;;;5.75;4.15;;;24.40;60.40;;;;;;5044805;28;20028;-72
2023/09/23 08:54:49;;;;;;;5.75;3.92;;;24.40;60.40;;;;;;5035925;28;20426;-73
2023/09/23 08:57:19;;;;;;;5.85;4.05;;;24.40;60.60;;;;;;5024179;28;20096;-69
2023/09/23 08:59:45;;;;;;;4.63;3.47;;;24.40;60.60;;;;;;5018376;28;20030;-67
2023/09/23 09:02:16;;;;;;;5.30;3.90;;;24.40;60.60;;;;;;5027891;28;20048;-70
2023/09/23 09:04:42;;;;;;;9.43;4.13;;;24.40;60.80;;;;;;5022912;28;20149;-69
2023/09/23 09:07:08;;;;;;;7.65;3.97;;;24.40;60.90;;;;;;5016051;28;20125;-69
2023/09/23 09:09:37;;;;;;;5.80;3.80;;;24.40;60.90;;;;;;5027182;28;20031;-69
2023/09/23 09:12:02;;;;;;;6.72;4.50;;;24.40;60.90;;;;;;5016075;28;20029;-69
2023/09/23 09:14:28;;;;;;;6.78;3.92;;;24.40;61.00;;;;;;5030178;28;20428;-69
2023/09/23 09:16:54;;;;;;;8.07;4.10;;;24.40;61.00;;;;;;5051866;28;20025;-70
2023/09/23 09:19:20;;;;;;;7.25;4.00;;;24.40;61.00;;;;;;5037597;28;20091;-68
2023/09/23 09:21:46;;;;;;;7.82;4.80;;;24.40;61.10;;;;;;5050169;28;20032;-70
2023/09/23 09:24:11;;;;;;;6.53;3.63;;;24.40;61.20;;;;;;5056232;28;20379;-70
2023/09/23 09:26:40;;;;;;;5.13;3.85;;;24.40;61.20;;;;;;5029433;28;20034;-70
2023/09/23 09:29:06;;;;;;;6.15;4.38;;;24.50;61.30;;;;;;5017660;28;20452;-70
2023/09/23 09:31:34;;;;;;;7.47;4.15;;;24.40;61.30;;;;;;5025368;28;20044;-71
2023/09/23 09:34:05;;;;;;;7.05;4.50;;;24.50;61.40;;;;;;5035348;28;20044;-69
2023/09/23 09:36:36;;;;;;;5.50;3.95;;;24.50;61.40;;;;;;5019012;28;20044;-69
2023/09/23 09:39:04;;;;;;;5.63;3.97;;;24.50;61.40;;;;;;5022537;28;20119;-73
2023/09/23 09:41:39;;;;;;;5.75;4.22;;;24.50;61.40;;;;;;5024515;28;20371;-72
2023/09/23 09:44:07;;;;;;;5.78;4.30;;;24.50;61.40;;;;;;5056028;28;20025;-72
2023/09/23 09:46:38;;;;;;;5.80;4.38;;;24.50;61.40;;;;;;5043622;28;20468;-71
2023/09/23 09:49:04;;;;;;;7.13;4.28;;;24.50;61.50;;;;;;5015167;28;20036;-72
2023/09/23 09:51:33;;;;;;;6.72;4.55;;;24.50;61.50;;;;;;5016515;28;20377;-71
2023/09/23 09:53:59;;;;;;;6.90;4.38;;;24.50;61.50;;;;;;5016609;28;20492;-70
2023/09/23 09:56:26;;;;;;;7.93;4.55;;;24.50;61.50;;;;;;5051309;28;20467;-71
2023/09/23 09:58:56;;;;;;;6.35;3.70;;;24.50;61.50;;;;;;5046856;28;20045;-70
2023/09/23 10:01:22;;;;;;;5.95;4.20;;;24.50;61.50;;;;;;5056286;28;20053;-70
2023/09/23 10:03:51;;;;;;;8.73;4.25;;;24.50;61.50;;;;;;5054696;28;20059;-69
2023/09/23 10:06:26;;;;;;;6.93;4.53;;;24.50;61.50;;;;;;5019532;28;20045;-67
2023/09/23 10:08:53;;;;;;;8.40;4.13;;;24.50;61.60;;;;;;5017129;28;20026;-69
2023/09/23 10:11:31;;;;;;;6.20;3.80;;;24.50;61.60;;;;;;5024950;28;20037;-68
2023/09/23 10:13:57;;;;;;;6.82;3.75;;;24.50;61.70;;;;;;5036423;28;20418;-68
2023/09/23 10:16:27;;;;;;;8.57;4.15;;;24.50;61.60;;;;;;5036002;28;20025;-68
2023/09/23 10:18:57;;;;;;;6.82;4.13;;;24.50;61.70;;;;;;5036092;28;20037;-68
2023/09/23 10:21:24;;;;;;;5.47;4.18;;;24.50;61.70;;;;;;5035468;28;20056;-68
2023/09/23 10:23:52;;;;;;;5.97;3.60;;;24.50;61.60;;;;;;5029174;28;20526;-68
2023/09/23 10:26:19;;;;;;;4.47;3.80;;;24.50;61.50;;;;;;5014694;28;20037;-68
2023/09/23 10:29:04;;;;;;;7.07;4.25;;;24.50;61.60;;;;;;5015898;28;20157;-68
2023/09/23 10:31:32;;;;;;;4.05;3.55;;;24.60;61.70;;;;;;5014447;28;20108;-68
2023/09/23 10:34:04;;;;;;;5.90;4.00;;;24.60;61.60;;;;;;5016254;28;20026;-68
2023/09/23 10:36:29;;;;;;;7.53;4.60;;;24.60;61.60;;;;;;5015023;28;20063;-68
2023/09/23 10:38:56;;;;;;;6.82;4.57;;;24.60;61.60;;;;;;5016839;28;20042;-68
2023/09/23 10:41:32;;;;;;;5.95;3.85;;;24.60;61.50;;;;;;5015763;28;20054;-68
2023/09/23 10:43:57;;;;;;;5.15;4.13;;;24.60;61.50;;;;;;5015465;28;20079;-68
2023/09/23 10:46:23;;;;;;;6.97;4.63;;;24.60;61.40;;;;;;5015373;28;20029;-68
2023/09/23 10:48:49;;;;;;;9.65;4.65;;;24.70;61.40;;;;;;5014390;28;20387;-68
2023/09/23 10:51:15;;;;;;;8.75;5.13;;;24.70;61.40;;;;;;5015583;28;20120;-69
2023/09/23 10:53:42;;;;;;;5.35;3.88;;;24.70;61.30;;;;;;5015383;28;20025;-68
2023/09/23 10:56:10;;;;;;;6.32;4.32;;;24.70;61.20;;;;;;5015258;28;20061;-68
2023/09/23 10:58:37;;;;;;;6.20;4.22;;;24.70;61.20;;;;;;5022742;28;20043;-68
2023/09/23 11:01:05;;;;;;;5.65;3.80;;;24.70;61.10;;;;;;5034868;28;20028;-68
2023/09/23 11:03:39;;;;;;;5.28;3.67;;;24.80;61.10;;;;;;5033883;28;20128;-68
2023/09/23 11:06:06;;;;;;;5.32;4.53;;;24.80;61.00;;;;;;5034563;28;20535;-68
2023/09/23 11:08:32;;;;;;;4.82;3.47;;;24.80;60.90;;;;;;5022410;28;20053;-70
2023/09/23 11:10:58;;;;;;;4.43;3.60;;;24.80;60.80;;;;;;5024647;28;20026;-68
2023/09/23 11:13:25;;;;;;;5.85;4.25;;;24.80;60.70;;;;;;5013606;28;20032;-69
2023/09/23 11:15:51;;;;;;;5.28;3.22;;;24.80;60.60;;;;;;5015494;28;20029;-68
2023/09/23 11:18:17;;;;;;;3.97;3.50;;;24.90;60.60;;;;;;5013692;28;20125;-68
2023/09/23 11:20:47;;;;;;;4.38;3.50;;;24.90;60.50;;;;;;5026526;28;20033;-68
2023/09/23 11:23:14;;;;;;;5.28;3.92;;;24.90;60.40;;;;;;5016400;28;20076;-69
2023/09/23 11:25:45;;;;;;;4.35;3.30;;;24.90;60.30;;;;;;5015101;28;20033;-68
2023/09/23 11:28:25;;;;;;;5.20;3.83;;;25.00;60.30;;;;;;5014660;28;20060;-69
2023/09/23 11:30:51;;;;;;;4.53;3.50;;;25.00;60.20;;;;;;5014944;28;20033;-67
2023/09/23 11:33:18;;;;;;;4.03;3.10;;;25.00;60.20;;;;;;5012571;28;20138;-68
2023/09/23 11:35:44;;;;;;;6.13;3.70;;;25.00;60.10;;;;;;5015312;28;20464;-69
2023/09/23 11:38:11;;;;;;;6.35;3.50;;;25.00;60.00;;;;;;5022759;28;20491;-68
2023/09/23 11:40:38;;;;;;;5.28;3.53;;;25.10;60.00;;;;;;5031731;28;20042;-68
2023/09/23 11:43:04;;;;;;;3.97;3.28;;;25.10;59.90;;;;;;5034104;28;20430;-68
2023/09/23 11:45:30;;;;;;;4.97;3.42;;;25.10;59.80;;;;;;5031366;28;20026;-68
2023/09/23 11:47:56;;;;;;;5.05;3.17;;;25.10;59.70;;;;;;5032895;28;20030;-68
2023/09/23 11:50:23;;;;;;;4.60;3.28;;;25.10;59.60;;;;;;5032233;28;20029;-69
2023/09/23 11:52:49;;;;;;;4.30;3.33;;;25.20;59.70;;;;;;5033371;28;20025;-67
2023/09/23 11:55:16;;;;;;;5.03;3.28;;;25.20;59.60;;;;;;5032313;28;20068;-68
2023/09/23 11:57:42;;;;;;;5.30;3.50;;;25.20;59.60;;;;;;5028320;28;20053;-67
2023/09/23 12:00:10;;;;;;;5.65;3.25;;;25.20;59.60;;;;;;5025569;28;20103;-68
2023/09/23 12:02:40;;;;;;;4.35;3.35;;;25.10;59.50;;;;;;5033329;28;20128;-69
2023/09/23 12:05:12;;;;;;;5.78;3.65;;;25.20;59.50;;;;;;5031905;28;20029;-68
2023/09/23 12:07:37;;;;;;;3.50;2.90;;;25.20;59.30;;;;;;5026836;28;20025;-69
2023/09/23 12:10:04;;;;;;;4.35;3.30;;;25.20;59.20;;;;;;5015538;28;20100;-69
2023/09/23 12:12:31;;;;;;;4.53;3.40;;;25.20;59.20;;;;;;5023011;28;20076;-69
2023/09/23 12:14:57;;;;;;;4.35;3.42;;;25.30;59.20;;;;;;5016827;28;20061;-70
2023/09/23 12:17:22;;;;;;;4.07;3.40;;;25.30;59.00;;;;;;5014918;28;20049;-69
2023/09/23 12:19:48;;;;;;;5.65;3.83;;;25.20;59.00;;;;;;5012738;28;20034;-69
2023/09/23 12:22:17;;;;;;;3.97;3.50;;;25.20;58.90;;;;;;5029725;28;20108;-69
2023/09/23 12:24:43;;;;;;;5.75;3.90;;;25.20;58.90;;;;;;5033800;28;20043;-69
2023/09/23 12:27:09;;;;;;;5.45;3.70;;;25.30;58.90;;;;;;5032999;28;20029;-69
2023/09/23 12:29:35;;;;;;;4.70;3.58;;;25.30;58.80;;;;;;5033341;28;20431;-69
2023/09/23 12:32:01;;;;;;;4.30;3.35;;;25.30;58.80;;;;;;5031970;28;20360;-69
2023/09/23 12:34:28;;;;;;;5.47;3.70;;;25.30;58.70;;;;;;5031670;28;20034;-69
2023/09/23 12:36:54;;;;;;;3.90;3.30;;;25.40;58.70;;;;;;5021285;28;20037;-69
2023/09/23 12:39:22;;;;;;;3.38;3.08;;;25.40;58.60;;;;;;5012448;28;20391;-69
2023/09/23 12:41:48;;;;;;;6.13;3.10;;;25.40;58.50;;;;;;5013908;28;20061;-69
2023/09/23 12:44:13;;;;;;;4.28;3.00;;;25.40;58.50;;;;;;5014536;28;20116;-67
2023/09/23 12:46:39;;;;;;;3.70;2.90;;;25.50;58.60;;;;;;5017627;28;20467;-70